Allenville, Illinois
Current Conditions -  °F | °C
As of 4:53 PM on Tuesday 21 Oct 2014 (Local Time) from KMTO Reporting Station
Clear Clear  
Wind Chill: 58°   Ceiling: Unl
Heat Index: 58°   Visibility: 10mi
Dew Point: 37°   Wind: 13mph
Humidity: 46%   Direction: 20°NNE
Pressure: 30.14"   Gusts: 20mph
Location:  39.5872°N, 88.5835°W
Report Text: KMTO 212153Z AUTO 02011G17KT 10SM CLR 14/03 A3014 RMK AO2 SLP206 T01440028
Loading
Personal Weather Stations






























Interactive Weather Map
Tropical Storm Tracking
New forecast layout! Learn more

10-Day Weather Forecast

Advertisements
Track Severe Weather on mobile